sensor_id;sensor_type;location;lat;lon;timestamp;P1;durP1;ratioP1;P2;durP2;ratioP2
27985;SDS011;15453;53.692;10.168;2023-03-23T00:00:46;10.15;;;4.75;;
27985;SDS011;15453;53.692;10.168;2023-03-23T00:03:11;10.07;;;5.57;;
27985;SDS011;15453;53.692;10.168;2023-03-23T00:05:38;9.15;;;4.68;;
27985;SDS011;15453;53.692;10.168;2023-03-23T00:08:06;9.48;;;4.82;;
27985;SDS011;15453;53.692;10.168;2023-03-23T00:10:31;11.10;;;5.43;;
27985;SDS011;15453;53.692;10.168;2023-03-23T00:13:00;8.25;;;5.18;;
27985;SDS011;15453;53.692;10.168;2023-03-23T00:15:29;8.52;;;5.70;;
27985;SDS011;15453;53.692;10.168;2023-03-23T00:17:58;10.02;;;5.85;;
27985;SDS011;15453;53.692;10.168;2023-03-23T00:20:28;8.02;;;5.45;;
27985;SDS011;15453;53.692;10.168;2023-03-23T00:23:06;7.18;;;5.30;;
27985;SDS011;15453;53.692;10.168;2023-03-23T00:25:32;8.38;;;5.88;;
27985;SDS011;15453;53.692;10.168;2023-03-23T00:27:58;8.32;;;5.72;;
27985;SDS011;15453;53.692;10.168;2023-03-23T00:30:23;8.93;;;6.13;;
27985;SDS011;15453;53.692;10.168;2023-03-23T00:32:48;10.90;;;6.35;;
27985;SDS011;15453;53.692;10.168;2023-03-23T00:35:15;10.93;;;7.07;;
27985;SDS011;15453;53.692;10.168;2023-03-23T00:37:42;9.82;;;6.32;;
27985;SDS011;15453;53.692;10.168;2023-03-23T00:40:08;10.90;;;6.53;;
27985;SDS011;15453;53.692;10.168;2023-03-23T00:42:35;8.90;;;6.60;;
27985;SDS011;15453;53.692;10.168;2023-03-23T00:45:02;10.13;;;6.65;;
27985;SDS011;15453;53.692;10.168;2023-03-23T00:47:35;8.10;;;6.28;;
27985;SDS011;15453;53.692;10.168;2023-03-23T00:50:01;9.35;;;6.95;;
27985;SDS011;15453;53.692;10.168;2023-03-23T00:52:28;9.25;;;7.35;;
27985;SDS011;15453;53.692;10.168;2023-03-23T00:54:53;10.18;;;7.28;;
27985;SDS011;15453;53.692;10.168;2023-03-23T00:57:18;9.05;;;7.30;;
27985;SDS011;15453;53.692;10.168;2023-03-23T00:59:43;9.25;;;7.75;;
27985;SDS011;15453;53.692;10.168;2023-03-23T01:02:09;7.47;;;6.63;;
27985;SDS011;15453;53.692;10.168;2023-03-23T01:04:34;8.18;;;6.88;;
27985;SDS011;15453;53.692;10.168;2023-03-23T01:07:01;10.45;;;7.05;;
27985;SDS011;15453;53.692;10.168;2023-03-23T01:09:27;8.82;;;7.40;;
27985;SDS011;15453;53.692;10.168;2023-03-23T01:11:52;8.05;;;6.93;;
27985;SDS011;15453;53.692;10.168;2023-03-23T01:14:19;9.75;;;7.57;;
27985;SDS011;15453;53.692;10.168;2023-03-23T01:16:45;8.50;;;7.25;;
27985;SDS011;15453;53.692;10.168;2023-03-23T01:19:10;9.70;;;6.65;;
27985;SDS011;15453;53.692;10.168;2023-03-23T01:21:35;11.20;;;7.75;;
27985;SDS011;15453;53.692;10.168;2023-03-23T01:24:01;9.73;;;7.50;;
27985;SDS011;15453;53.692;10.168;2023-03-23T01:26:27;9.50;;;7.90;;
27985;SDS011;15453;53.692;10.168;2023-03-23T01:28:53;10.45;;;7.32;;
27985;SDS011;15453;53.692;10.168;2023-03-23T01:31:20;8.48;;;7.25;;
27985;SDS011;15453;53.692;10.168;2023-03-23T01:33:48;9.80;;;7.95;;
27985;SDS011;15453;53.692;10.168;2023-03-23T01:36:20;9.25;;;7.50;;
27985;SDS011;15453;53.692;10.168;2023-03-23T01:38:47;9.77;;;6.97;;
27985;SDS011;15453;53.692;10.168;2023-03-23T01:41:13;11.13;;;7.25;;
27985;SDS011;15453;53.692;10.168;2023-03-23T01:43:56;13.18;;;7.85;;
27985;SDS011;15453;53.692;10.168;2023-03-23T01:46:28;12.15;;;7.63;;
27985;SDS011;15453;53.692;10.168;2023-03-23T01:48:55;10.30;;;8.52;;
27985;SDS011;15453;53.692;10.168;2023-03-23T01:51:23;10.70;;;8.13;;
27985;SDS011;15453;53.692;10.168;2023-03-23T01:53:54;9.30;;;8.23;;
27985;SDS011;15453;53.692;10.168;2023-03-23T01:56:22;11.65;;;8.43;;
27985;SDS011;15453;53.692;10.168;2023-03-23T01:58:51;12.10;;;9.13;;
27985;SDS011;15453;53.692;10.168;2023-03-23T02:01:18;9.98;;;8.95;;
27985;SDS011;15453;53.692;10.168;2023-03-23T02:03:46;10.70;;;9.10;;
27985;SDS011;15453;53.692;10.168;2023-03-23T02:06:13;11.40;;;8.93;;
27985;SDS011;15453;53.692;10.168;2023-03-23T02:08:39;12.98;;;9.98;;
27985;SDS011;15453;53.692;10.168;2023-03-23T02:11:13;9.85;;;8.40;;
27985;SDS011;15453;53.692;10.168;2023-03-23T02:13:40;11.98;;;9.63;;
27985;SDS011;15453;53.692;10.168;2023-03-23T02:21:20;11.00;;;9.75;;
27985;SDS011;15453;53.692;10.168;2023-03-23T02:32:22;15.27;;;10.15;;
27985;SDS011;15453;53.692;10.168;2023-03-23T02:35:01;12.25;;;9.10;;
27985;SDS011;15453;53.692;10.168;2023-03-23T02:39:58;9.68;;;8.68;;
27985;SDS011;15453;53.692;10.168;2023-03-23T02:42:33;11.13;;;9.35;;
27985;SDS011;15453;53.692;10.168;2023-03-23T02:45:05;10.25;;;8.95;;
27985;SDS011;15453;53.692;10.168;2023-03-23T02:47:33;10.68;;;8.88;;
27985;SDS011;15453;53.692;10.168;2023-03-23T02:50:02;10.90;;;8.82;;
27985;SDS011;15453;53.692;10.168;2023-03-23T02:52:30;10.43;;;8.30;;
27985;SDS011;15453;53.692;10.168;2023-03-23T02:54:57;8.23;;;7.28;;
27985;SDS011;15453;53.692;10.168;2023-03-23T02:57:24;10.05;;;8.00;;
27985;SDS011;15453;53.692;10.168;2023-03-23T02:59:51;10.73;;;7.57;;
27985;SDS011;15453;53.692;10.168;2023-03-23T03:02:17;8.52;;;7.28;;
27985;SDS011;15453;53.692;10.168;2023-03-23T03:05:20;10.07;;;7.25;;
27985;SDS011;15453;53.692;10.168;2023-03-23T03:12:56;9.00;;;7.30;;
27985;SDS011;15453;53.692;10.168;2023-03-23T03:15:31;9.05;;;6.75;;
27985;SDS011;15453;53.692;10.168;2023-03-23T03:18:15;6.97;;;6.07;;
27985;SDS011;15453;53.692;10.168;2023-03-23T03:20:51;7.32;;;5.95;;
27985;SDS011;15453;53.692;10.168;2023-03-23T03:23:20;8.40;;;6.22;;
27985;SDS011;15453;53.692;10.168;2023-03-23T03:25:47;7.80;;;6.40;;
27985;SDS011;15453;53.692;10.168;2023-03-23T03:28:17;6.55;;;5.85;;
27985;SDS011;15453;53.692;10.168;2023-03-23T03:30:46;7.65;;;6.15;;
27985;SDS011;15453;53.692;10.168;2023-03-23T03:33:17;6.47;;;5.80;;
27985;SDS011;15453;53.692;10.168;2023-03-23T03:35:45;9.23;;;5.95;;
27985;SDS011;15453;53.692;10.168;2023-03-23T03:38:11;8.10;;;5.82;;
27985;SDS011;15453;53.692;10.168;2023-03-23T03:40:37;7.25;;;5.68;;
27985;SDS011;15453;53.692;10.168;2023-03-23T03:43:02;7.72;;;6.00;;
27985;SDS011;15453;53.692;10.168;2023-03-23T03:45:29;7.93;;;6.05;;
27985;SDS011;15453;53.692;10.168;2023-03-23T03:47:55;7.78;;;6.13;;
27985;SDS011;15453;53.692;10.168;2023-03-23T03:50:20;9.68;;;6.18;;
27985;SDS011;15453;53.692;10.168;2023-03-23T03:52:45;9.82;;;6.88;;
27985;SDS011;15453;53.692;10.168;2023-03-23T03:55:10;7.43;;;6.40;;
27985;SDS011;15453;53.692;10.168;2023-03-23T03:57:36;7.68;;;6.60;;
27985;SDS011;15453;53.692;10.168;2023-03-23T04:00:03;8.73;;;6.57;;
27985;SDS011;15453;53.692;10.168;2023-03-23T04:02:38;7.75;;;6.22;;
27985;SDS011;15453;53.692;10.168;2023-03-23T04:05:05;9.13;;;6.82;;
27985;SDS011;15453;53.692;10.168;2023-03-23T04:07:31;7.65;;;6.72;;
27985;SDS011;15453;53.692;10.168;2023-03-23T04:09:56;8.95;;;6.60;;
27985;SDS011;15453;53.692;10.168;2023-03-23T04:12:21;9.38;;;7.53;;
27985;SDS011;15453;53.692;10.168;2023-03-23T04:14:46;10.45;;;7.25;;
27985;SDS011;15453;53.692;10.168;2023-03-23T04:17:11;8.30;;;6.45;;
27985;SDS011;15453;53.692;10.168;2023-03-23T04:19:37;8.05;;;6.80;;
27985;SDS011;15453;53.692;10.168;2023-03-23T04:22:03;10.07;;;7.28;;
27985;SDS011;15453;53.692;10.168;2023-03-23T04:24:30;11.52;;;7.80;;
27985;SDS011;15453;53.692;10.168;2023-03-23T04:26:58;9.45;;;6.72;;
27985;SDS011;15453;53.692;10.168;2023-03-23T04:29:23;8.35;;;7.45;;
27985;SDS011;15453;53.692;10.168;2023-03-23T04:31:48;9.23;;;6.82;;
27985;SDS011;15453;53.692;10.168;2023-03-23T04:34:15;9.45;;;7.07;;
27985;SDS011;15453;53.692;10.168;2023-03-23T04:36:41;9.73;;;7.05;;
27985;SDS011;15453;53.692;10.168;2023-03-23T04:39:07;10.57;;;7.30;;
27985;SDS011;15453;53.692;10.168;2023-03-23T04:41:35;10.15;;;7.25;;
27985;SDS011;15453;53.692;10.168;2023-03-23T04:44:01;9.25;;;7.80;;
27985;SDS011;15453;53.692;10.168;2023-03-23T04:46:27;9.13;;;6.82;;
27985;SDS011;15453;53.692;10.168;2023-03-23T04:48:53;9.95;;;7.30;;
27985;SDS011;15453;53.692;10.168;2023-03-23T04:51:19;11.40;;;7.60;;
27985;SDS011;15453;53.692;10.168;2023-03-23T04:53:45;8.68;;;7.25;;
27985;SDS011;15453;53.692;10.168;2023-03-23T04:56:10;9.15;;;7.38;;
27985;SDS011;15453;53.692;10.168;2023-03-23T04:58:38;10.98;;;7.50;;
27985;SDS011;15453;53.692;10.168;2023-03-23T05:01:04;10.98;;;7.43;;
27985;SDS011;15453;53.692;10.168;2023-03-23T05:03:29;9.75;;;7.38;;
27985;SDS011;15453;53.692;10.168;2023-03-23T05:05:55;8.20;;;6.63;;
27985;SDS011;15453;53.692;10.168;2023-03-23T05:08:21;10.15;;;6.65;;
27985;SDS011;15453;53.692;10.168;2023-03-23T05:10:57;9.73;;;6.80;;
27985;SDS011;15453;53.692;10.168;2023-03-23T05:13:24;9.80;;;7.03;;
27985;SDS011;15453;53.692;10.168;2023-03-23T05:15:49;8.77;;;6.75;;
27985;SDS011;15453;53.692;10.168;2023-03-23T05:18:15;7.93;;;6.60;;
27985;SDS011;15453;53.692;10.168;2023-03-23T05:20:42;9.77;;;7.20;;
27985;SDS011;15453;53.692;10.168;2023-03-23T05:23:08;9.13;;;6.70;;
27985;SDS011;15453;53.692;10.168;2023-03-23T05:25:35;10.77;;;6.88;;
27985;SDS011;15453;53.692;10.168;2023-03-23T05:28:04;7.93;;;6.40;;
27985;SDS011;15453;53.692;10.168;2023-03-23T05:30:30;9.38;;;7.32;;
27985;SDS011;15453;53.692;10.168;2023-03-23T05:32:55;8.27;;;6.25;;
27985;SDS011;15453;53.692;10.168;2023-03-23T05:35:20;9.50;;;6.88;;
27985;SDS011;15453;53.692;10.168;2023-03-23T05:37:46;9.13;;;7.03;;
27985;SDS011;15453;53.692;10.168;2023-03-23T05:40:12;10.18;;;6.45;;
27985;SDS011;15453;53.692;10.168;2023-03-23T05:42:38;9.13;;;7.30;;
27985;SDS011;15453;53.692;10.168;2023-03-23T05:45:06;11.50;;;7.53;;
27985;SDS011;15453;53.692;10.168;2023-03-23T05:47:34;9.10;;;7.07;;
27985;SDS011;15453;53.692;10.168;2023-03-23T05:50:00;10.18;;;7.70;;
27985;SDS011;15453;53.692;10.168;2023-03-23T05:52:26;10.90;;;8.25;;
27985;SDS011;15453;53.692;10.168;2023-03-23T05:54:52;10.48;;;7.18;;
27985;SDS011;15453;53.692;10.168;2023-03-23T05:57:17;9.02;;;7.40;;
27985;SDS011;15453;53.692;10.168;2023-03-23T05:59:43;12.40;;;7.63;;
27985;SDS011;15453;53.692;10.168;2023-03-23T06:02:09;9.85;;;6.95;;
27985;SDS011;15453;53.692;10.168;2023-03-23T06:04:35;10.68;;;7.10;;
27985;SDS011;15453;53.692;10.168;2023-03-23T06:07:03;11.38;;;7.20;;
27985;SDS011;15453;53.692;10.168;2023-03-23T06:09:29;9.55;;;6.65;;
27985;SDS011;15453;53.692;10.168;2023-03-23T06:11:54;8.10;;;6.57;;
27985;SDS011;15453;53.692;10.168;2023-03-23T06:14:19;8.88;;;6.05;;
27985;SDS011;15453;53.692;10.168;2023-03-23T06:16:46;7.50;;;5.90;;
27985;SDS011;15453;53.692;10.168;2023-03-23T06:19:11;7.65;;;5.85;;
27985;SDS011;15453;53.692;10.168;2023-03-23T06:21:36;6.38;;;4.78;;
27985;SDS011;15453;53.692;10.168;2023-03-23T06:24:02;6.88;;;5.45;;
27985;SDS011;15453;53.692;10.168;2023-03-23T06:26:30;7.78;;;5.40;;
27985;SDS011;15453;53.692;10.168;2023-03-23T06:29:00;8.10;;;6.13;;
27985;SDS011;15453;53.692;10.168;2023-03-23T06:31:26;7.55;;;5.03;;
27985;SDS011;15453;53.692;10.168;2023-03-23T06:33:52;8.88;;;5.45;;
27985;SDS011;15453;53.692;10.168;2023-03-23T06:36:17;8.32;;;4.95;;
27985;SDS011;15453;53.692;10.168;2023-03-23T06:38:43;6.57;;;4.78;;
27985;SDS011;15453;53.692;10.168;2023-03-23T06:41:09;7.15;;;4.90;;
27985;SDS011;15453;53.692;10.168;2023-03-23T06:43:35;7.28;;;4.82;;
27985;SDS011;15453;53.692;10.168;2023-03-23T06:46:03;7.05;;;4.78;;
27985;SDS011;15453;53.692;10.168;2023-03-23T06:48:28;8.60;;;5.15;;
27985;SDS011;15453;53.692;10.168;2023-03-23T06:50:54;5.97;;;4.35;;
27985;SDS011;15453;53.692;10.168;2023-03-23T06:53:19;8.23;;;5.32;;
27985;SDS011;15453;53.692;10.168;2023-03-23T06:55:45;8.40;;;4.80;;
27985;SDS011;15453;53.692;10.168;2023-03-23T06:58:11;9.73;;;5.00;;
27985;SDS011;15453;53.692;10.168;2023-03-23T07:00:37;6.57;;;4.45;;
27985;SDS011;15453;53.692;10.168;2023-03-23T07:03:03;9.50;;;4.88;;
27985;SDS011;15453;53.692;10.168;2023-03-23T07:05:28;7.10;;;4.50;;
27985;SDS011;15453;53.692;10.168;2023-03-23T07:07:55;6.65;;;4.60;;
27985;SDS011;15453;53.692;10.168;2023-03-23T07:10:20;7.18;;;4.15;;
27985;SDS011;15453;53.692;10.168;2023-03-23T07:12:45;7.53;;;4.07;;
27985;SDS011;15453;53.692;10.168;2023-03-23T07:15:11;6.35;;;4.38;;
27985;SDS011;15453;53.692;10.168;2023-03-23T07:17:37;7.25;;;4.70;;
27985;SDS011;15453;53.692;10.168;2023-03-23T07:20:04;6.90;;;5.13;;
27985;SDS011;15453;53.692;10.168;2023-03-23T07:22:30;7.35;;;5.10;;
27985;SDS011;15453;53.692;10.168;2023-03-23T07:24:55;6.63;;;4.35;;
27985;SDS011;15453;53.692;10.168;2023-03-23T07:27:21;6.80;;;4.00;;
27985;SDS011;15453;53.692;10.168;2023-03-23T07:29:46;5.90;;;4.03;;
27985;SDS011;15453;53.692;10.168;2023-03-23T07:32:12;9.32;;;3.88;;
27985;SDS011;15453;53.692;10.168;2023-03-23T07:34:37;9.38;;;4.25;;
27985;SDS011;15453;53.692;10.168;2023-03-23T07:37:03;6.43;;;3.90;;
27985;SDS011;15453;53.692;10.168;2023-03-23T07:39:29;5.03;;;3.42;;
27985;SDS011;15453;53.692;10.168;2023-03-23T07:41:54;5.85;;;3.55;;
27985;SDS011;15453;53.692;10.168;2023-03-23T07:44:20;6.10;;;3.47;;
27985;SDS011;15453;53.692;10.168;2023-03-23T07:46:45;5.63;;;3.28;;
27985;SDS011;15453;53.692;10.168;2023-03-23T07:49:11;6.28;;;3.10;;
27985;SDS011;15453;53.692;10.168;2023-03-23T07:51:37;7.53;;;3.38;;
27985;SDS011;15453;53.692;10.168;2023-03-23T07:54:05;9.20;;;3.83;;
27985;SDS011;15453;53.692;10.168;2023-03-23T07:56:32;10.95;;;4.30;;
27985;SDS011;15453;53.692;10.168;2023-03-23T07:58:58;8.75;;;4.13;;
27985;SDS011;15453;53.692;10.168;2023-03-23T08:01:24;6.25;;;3.88;;
27985;SDS011;15453;53.692;10.168;2023-03-23T08:03:49;9.32;;;3.72;;
27985;SDS011;15453;53.692;10.168;2023-03-23T08:06:16;6.88;;;3.30;;
27985;SDS011;15453;53.692;10.168;2023-03-23T08:08:42;7.15;;;3.80;;
27985;SDS011;15453;53.692;10.168;2023-03-23T08:11:07;8.73;;;3.40;;
27985;SDS011;15453;53.692;10.168;2023-03-23T08:13:33;6.25;;;2.60;;
27985;SDS011;15453;53.692;10.168;2023-03-23T08:15:59;3.45;;;2.03;;
27985;SDS011;15453;53.692;10.168;2023-03-23T08:18:28;5.57;;;2.20;;
27985;SDS011;15453;53.692;10.168;2023-03-23T08:20:54;3.70;;;1.55;;
27985;SDS011;15453;53.692;10.168;2023-03-23T08:23:19;2.40;;;1.05;;
27985;SDS011;15453;53.692;10.168;2023-03-23T08:25:45;3.03;;;0.95;;
27985;SDS011;15453;53.692;10.168;2023-03-23T08:28:11;5.72;;;1.20;;
27985;SDS011;15453;53.692;10.168;2023-03-23T08:30:38;3.33;;;1.30;;
27985;SDS011;15453;53.692;10.168;2023-03-23T08:33:05;3.17;;;0.98;;
27985;SDS011;15453;53.692;10.168;2023-03-23T08:35:30;2.25;;;0.85;;
27985;SDS011;15453;53.692;10.168;2023-03-23T08:37:56;1.90;;;0.90;;
27985;SDS011;15453;53.692;10.168;2023-03-23T08:40:22;2.90;;;0.90;;
27985;SDS011;15453;53.692;10.168;2023-03-23T08:42:49;2.50;;;0.80;;
27985;SDS011;15453;53.692;10.168;2023-03-23T08:45:17;1.83;;;0.63;;
27985;SDS011;15453;53.692;10.168;2023-03-23T08:47:45;1.92;;;0.88;;
27985;SDS011;15453;53.692;10.168;2023-03-23T08:50:13;2.42;;;0.90;;
27985;SDS011;15453;53.692;10.168;2023-03-23T08:52:40;2.60;;;0.90;;
27985;SDS011;15453;53.692;10.168;2023-03-23T08:55:06;4.20;;;1.10;;
27985;SDS011;15453;53.692;10.168;2023-03-23T08:57:33;2.47;;;0.93;;
27985;SDS011;15453;53.692;10.168;2023-03-23T08:59:59;3.33;;;1.30;;
27985;SDS011;15453;53.692;10.168;2023-03-23T09:02:33;2.35;;;1.30;;
27985;SDS011;15453;53.692;10.168;2023-03-23T09:04:59;5.13;;;1.83;;
27985;SDS011;15453;53.692;10.168;2023-03-23T09:07:26;3.80;;;1.77;;
27985;SDS011;15453;53.692;10.168;2023-03-23T09:09:51;4.97;;;2.03;;
27985;SDS011;15453;53.692;10.168;2023-03-23T09:12:17;5.65;;;1.92;;
27985;SDS011;15453;53.692;10.168;2023-03-23T09:14:42;6.75;;;1.60;;
27985;SDS011;15453;53.692;10.168;2023-03-23T09:17:07;3.85;;;1.60;;
27985;SDS011;15453;53.692;10.168;2023-03-23T09:19:33;6.20;;;2.25;;
27985;SDS011;15453;53.692;10.168;2023-03-23T09:21:59;4.53;;;2.25;;
27985;SDS011;15453;53.692;10.168;2023-03-23T09:24:25;4.25;;;1.80;;
27985;SDS011;15453;53.692;10.168;2023-03-23T09:26:51;3.65;;;2.10;;
27985;SDS011;15453;53.692;10.168;2023-03-23T09:29:17;5.38;;;2.10;;
27985;SDS011;15453;53.692;10.168;2023-03-23T09:31:43;4.93;;;2.03;;
27985;SDS011;15453;53.692;10.168;2023-03-23T09:34:11;4.43;;;1.70;;
27985;SDS011;15453;53.692;10.168;2023-03-23T09:36:37;5.13;;;2.33;;
27985;SDS011;15453;53.692;10.168;2023-03-23T09:39:04;6.45;;;2.20;;
27985;SDS011;15453;53.692;10.168;2023-03-23T09:52:43;5.90;;;2.05;;
27985;SDS011;15453;53.692;10.168;2023-03-23T09:55:13;6.55;;;2.50;;
27985;SDS011;15453;53.692;10.168;2023-03-23T09:58:03;8.15;;;2.90;;
27985;SDS011;15453;53.692;10.168;2023-03-23T10:00:35;8.07;;;2.20;;
27985;SDS011;15453;53.692;10.168;2023-03-23T10:03:11;7.57;;;2.28;;
27985;SDS011;15453;53.692;10.168;2023-03-23T10:05:46;5.63;;;2.30;;
27985;SDS011;15453;53.692;10.168;2023-03-23T10:08:15;15.45;;;2.67;;
27985;SDS011;15453;53.692;10.168;2023-03-23T10:10:47;8.20;;;2.30;;
27985;SDS011;15453;53.692;10.168;2023-03-23T10:15:54;9.45;;;2.10;;
27985;SDS011;15453;53.692;10.168;2023-03-23T10:18:29;10.40;;;2.60;;
27985;SDS011;15453;53.692;10.168;2023-03-23T10:21:01;8.23;;;2.30;;
27985;SDS011;15453;53.692;10.168;2023-03-23T10:23:37;7.28;;;2.17;;
27985;SDS011;15453;53.692;10.168;2023-03-23T10:32:04;10.27;;;2.10;;
27985;SDS011;15453;53.692;10.168;2023-03-23T10:34:41;13.45;;;2.95;;
27985;SDS011;15453;53.692;10.168;2023-03-23T10:37:26;7.57;;;2.50;;
27985;SDS011;15453;53.692;10.168;2023-03-23T10:39:58;8.15;;;2.05;;
27985;SDS011;15453;53.692;10.168;2023-03-23T10:42:28;11.90;;;2.70;;
27985;SDS011;15453;53.692;10.168;2023-03-23T10:44:59;10.57;;;2.42;;
27985;SDS011;15453;53.692;10.168;2023-03-23T10:47:39;11.25;;;2.60;;
27985;SDS011;15453;53.692;10.168;2023-03-23T10:50:12;8.07;;;2.30;;
27985;SDS011;15453;53.692;10.168;2023-03-23T10:52:42;12.20;;;2.75;;
27985;SDS011;15453;53.692;10.168;2023-03-23T10:58:05;8.75;;;2.78;;
27985;SDS011;15453;53.692;10.168;2023-03-23T11:00:33;9.38;;;2.17;;
27985;SDS011;15453;53.692;10.168;2023-03-23T11:03:52;11.02;;;2.30;;
27985;SDS011;15453;53.692;10.168;2023-03-23T11:06:03;11.82;;;2.53;;
27985;SDS011;15453;53.692;10.168;2023-03-23T11:08:34;10.63;;;2.55;;
27985;SDS011;15453;53.692;10.168;2023-03-23T11:13:38;10.75;;;2.83;;
27985;SDS011;15453;53.692;10.168;2023-03-23T11:16:07;12.63;;;2.20;;
27985;SDS011;15453;53.692;10.168;2023-03-23T11:18:37;8.50;;;2.20;;
27985;SDS011;15453;53.692;10.168;2023-03-23T11:21:04;8.65;;;2.38;;
27985;SDS011;15453;53.692;10.168;2023-03-23T11:23:39;12.93;;;2.58;;
27985;SDS011;15453;53.692;10.168;2023-03-23T11:28:48;11.75;;;2.60;;
27985;SDS011;15453;53.692;10.168;2023-03-23T11:31:38;10.45;;;2.20;;
27985;SDS011;15453;53.692;10.168;2023-03-23T11:34:10;8.75;;;2.72;;
27985;SDS011;15453;53.692;10.168;2023-03-23T11:36:48;12.27;;;2.90;;
27985;SDS011;15453;53.692;10.168;2023-03-23T11:39:26;12.75;;;2.50;;
27985;SDS011;15453;53.692;10.168;2023-03-23T11:41:57;12.18;;;2.35;;
27985;SDS011;15453;53.692;10.168;2023-03-23T11:44:30;14.10;;;3.38;;
27985;SDS011;15453;53.692;10.168;2023-03-23T11:47:04;17.48;;;3.50;;
27985;SDS011;15453;53.692;10.168;2023-03-23T11:49:45;19.13;;;3.35;;
27985;SDS011;15453;53.692;10.168;2023-03-23T11:52:24;10.60;;;2.60;;
27985;SDS011;15453;53.692;10.168;2023-03-23T11:54:59;10.23;;;2.50;;
27985;SDS011;15453;53.692;10.168;2023-03-23T11:57:32;12.10;;;2.70;;
27985;SDS011;15453;53.692;10.168;2023-03-23T11:59:57;15.98;;;3.08;;
27985;SDS011;15453;53.692;10.168;2023-03-23T12:24:38;12.63;;;3.30;;
27985;SDS011;15453;53.692;10.168;2023-03-23T12:29:53;13.20;;;2.85;;
27985;SDS011;15453;53.692;10.168;2023-03-23T12:37:51;13.90;;;3.28;;
27985;SDS011;15453;53.692;10.168;2023-03-23T12:51:45;11.50;;;2.58;;
27985;SDS011;15453;53.692;10.168;2023-03-23T12:54:32;9.00;;;2.83;;
27985;SDS011;15453;53.692;10.168;2023-03-23T12:59:57;9.88;;;2.70;;
27985;SDS011;15453;53.692;10.168;2023-03-23T13:07:56;10.32;;;3.35;;
27985;SDS011;15453;53.692;10.168;2023-03-23T13:10:33;9.05;;;2.88;;
27985;SDS011;15453;53.692;10.168;2023-03-23T13:13:07;9.73;;;2.70;;
27985;SDS011;15453;53.692;10.168;2023-03-23T13:15:48;8.10;;;2.60;;
27985;SDS011;15453;53.692;10.168;2023-03-23T13:21:13;10.20;;;3.35;;
27985;SDS011;15453;53.692;10.168;2023-03-23T13:23:42;10.55;;;3.47;;
27985;SDS011;15453;53.692;10.168;2023-03-23T13:26:13;11.45;;;3.63;;
27985;SDS011;15453;53.692;10.168;2023-03-23T13:31:23;19.60;;;6.57;;
27985;SDS011;15453;53.692;10.168;2023-03-23T13:36:44;11.88;;;3.78;;
27985;SDS011;15453;53.692;10.168;2023-03-23T13:39:23;13.75;;;3.10;;
27985;SDS011;15453;53.692;10.168;2023-03-23T13:44:54;12.10;;;3.10;;
27985;SDS011;15453;53.692;10.168;2023-03-23T13:47:41;7.93;;;2.33;;
27985;SDS011;15453;53.692;10.168;2023-03-23T13:50:10;20.90;;;3.47;;
27985;SDS011;15453;53.692;10.168;2023-03-23T13:52:53;8.15;;;2.30;;
27985;SDS011;15453;53.692;10.168;2023-03-23T13:55:29;10.75;;;2.78;;
27985;SDS011;15453;53.692;10.168;2023-03-23T14:03:14;5.03;;;1.27;;
27985;SDS011;15453;53.692;10.168;2023-03-23T14:08:35;6.63;;;1.80;;
27985;SDS011;15453;53.692;10.168;2023-03-23T14:16:48;3.40;;;1.38;;
27985;SDS011;15453;53.692;10.168;2023-03-23T14:19:23;4.90;;;1.35;;
27985;SDS011;15453;53.692;10.168;2023-03-23T14:21:55;2.22;;;0.93;;
27985;SDS011;15453;53.692;10.168;2023-03-23T14:27:00;4.65;;;1.20;;
27985;SDS011;15453;53.692;10.168;2023-03-23T14:29:28;5.28;;;1.20;;
27985;SDS011;15453;53.692;10.168;2023-03-23T14:31:57;3.40;;;1.13;;
27985;SDS011;15453;53.692;10.168;2023-03-23T14:34:25;3.40;;;0.93;;
27985;SDS011;15453;53.692;10.168;2023-03-23T14:36:53;3.92;;;1.52;;
27985;SDS011;15453;53.692;10.168;2023-03-23T14:39:33;2.30;;;0.98;;
27985;SDS011;15453;53.692;10.168;2023-03-23T14:42:06;4.13;;;1.48;;
27985;SDS011;15453;53.692;10.168;2023-03-23T14:44:37;5.03;;;1.88;;
27985;SDS011;15453;53.692;10.168;2023-03-23T14:47:06;4.95;;;1.50;;
27985;SDS011;15453;53.692;10.168;2023-03-23T14:49:38;2.97;;;1.30;;
27985;SDS011;15453;53.692;10.168;2023-03-23T14:52:13;3.75;;;1.23;;
27985;SDS011;15453;53.692;10.168;2023-03-23T14:54:41;1.67;;;0.95;;
27985;SDS011;15453;53.692;10.168;2023-03-23T14:57:12;3.53;;;1.35;;
27985;SDS011;15453;53.692;10.168;2023-03-23T14:59:41;5.32;;;1.60;;
27985;SDS011;15453;53.692;10.168;2023-03-23T15:02:09;3.17;;;1.40;;
27985;SDS011;15453;53.692;10.168;2023-03-23T15:04:38;4.90;;;1.58;;
27985;SDS011;15453;53.692;10.168;2023-03-23T15:07:04;3.13;;;1.20;;
27985;SDS011;15453;53.692;10.168;2023-03-23T15:09:31;4.30;;;1.50;;
27985;SDS011;15453;53.692;10.168;2023-03-23T15:11:58;4.55;;;1.40;;
27985;SDS011;15453;53.692;10.168;2023-03-23T15:14:27;5.63;;;1.63;;
27985;SDS011;15453;53.692;10.168;2023-03-23T15:16:56;6.20;;;1.50;;
27985;SDS011;15453;53.692;10.168;2023-03-23T15:19:25;3.67;;;1.58;;
27985;SDS011;15453;53.692;10.168;2023-03-23T15:22:16;5.38;;;1.60;;
27985;SDS011;15453;53.692;10.168;2023-03-23T15:24:45;5.43;;;2.15;;
27985;SDS011;15453;53.692;10.168;2023-03-23T15:29:48;6.00;;;1.67;;
27985;SDS011;15453;53.692;10.168;2023-03-23T15:32:50;8.15;;;2.10;;
27985;SDS011;15453;53.692;10.168;2023-03-23T15:35:19;6.05;;;1.70;;
27985;SDS011;15453;53.692;10.168;2023-03-23T15:37:57;4.35;;;1.70;;
27985;SDS011;15453;53.692;10.168;2023-03-23T15:40:25;6.75;;;1.70;;
27985;SDS011;15453;53.692;10.168;2023-03-23T15:45:32;5.78;;;1.77;;
27985;SDS011;15453;53.692;10.168;2023-03-23T15:47:58;4.28;;;1.75;;
27985;SDS011;15453;53.692;10.168;2023-03-23T15:50:35;7.68;;;1.98;;
27985;SDS011;15453;53.692;10.168;2023-03-23T15:53:01;4.95;;;1.63;;
27985;SDS011;15453;53.692;10.168;2023-03-23T15:55:38;4.95;;;1.70;;
27985;SDS011;15453;53.692;10.168;2023-03-23T15:58:08;5.45;;;1.98;;
27985;SDS011;15453;53.692;10.168;2023-03-23T16:00:35;5.70;;;1.75;;
27985;SDS011;15453;53.692;10.168;2023-03-23T16:03:03;5.20;;;1.63;;
27985;SDS011;15453;53.692;10.168;2023-03-23T16:05:30;5.00;;;1.95;;
27985;SDS011;15453;53.692;10.168;2023-03-23T16:07:56;8.90;;;2.50;;
27985;SDS011;15453;53.692;10.168;2023-03-23T16:10:23;7.03;;;2.35;;
27985;SDS011;15453;53.692;10.168;2023-03-23T16:12:49;4.90;;;1.80;;
27985;SDS011;15453;53.692;10.168;2023-03-23T16:15:15;6.13;;;2.00;;
27985;SDS011;15453;53.692;10.168;2023-03-23T16:17:40;5.45;;;1.95;;
27985;SDS011;15453;53.692;10.168;2023-03-23T16:20:13;8.05;;;2.15;;
27985;SDS011;15453;53.692;10.168;2023-03-23T16:22:40;4.35;;;1.90;;
27985;SDS011;15453;53.692;10.168;2023-03-23T16:25:06;5.68;;;2.22;;
27985;SDS011;15453;53.692;10.168;2023-03-23T16:27:32;7.60;;;2.67;;
27985;SDS011;15453;53.692;10.168;2023-03-23T16:29:57;9.45;;;2.30;;
27985;SDS011;15453;53.692;10.168;2023-03-23T16:32:24;4.82;;;1.98;;
27985;SDS011;15453;53.692;10.168;2023-03-23T16:34:50;10.90;;;2.60;;
27985;SDS011;15453;53.692;10.168;2023-03-23T16:37:15;9.50;;;2.28;;
27985;SDS011;15453;53.692;10.168;2023-03-23T16:39:41;6.78;;;1.60;;
27985;SDS011;15453;53.692;10.168;2023-03-23T16:42:06;4.40;;;1.60;;
27985;SDS011;15453;53.692;10.168;2023-03-23T16:44:31;3.45;;;1.50;;
27985;SDS011;15453;53.692;10.168;2023-03-23T16:46:56;5.05;;;1.67;;
27985;SDS011;15453;53.692;10.168;2023-03-23T16:49:21;4.20;;;1.67;;
27985;SDS011;15453;53.692;10.168;2023-03-23T16:51:47;5.10;;;1.45;;